sensor_id;sensor_type;location;lat;lon;timestamp;P1;durP1;ratioP1;P2;durP2;ratioP2
11531;SDS011;5822;51.000;5.874;2022-10-23T00:00:35;10.93;;;10.33;;
11531;SDS011;5822;51.000;5.874;2022-10-23T00:03:01;10.80;;;10.20;;
11531;SDS011;5822;51.000;5.874;2022-10-23T00:05:28;10.80;;;10.20;;
11531;SDS011;5822;51.000;5.874;2022-10-23T00:07:55;13.23;;;12.43;;
11531;SDS011;5822;51.000;5.874;2022-10-23T00:10:22;11.40;;;10.80;;
11531;SDS011;5822;51.000;5.874;2022-10-23T00:12:49;11.20;;;10.60;;
11531;SDS011;5822;51.000;5.874;2022-10-23T00:15:17;10.52;;;10.02;;
11531;SDS011;5822;51.000;5.874;2022-10-23T00:17:44;10.40;;;9.82;;
11531;SDS011;5822;51.000;5.874;2022-10-23T00:20:10;10.70;;;10.10;;
11531;SDS011;5822;51.000;5.874;2022-10-23T00:22:36;10.60;;;10.00;;
11531;SDS011;5822;51.000;5.874;2022-10-23T00:25:03;11.45;;;10.82;;
11531;SDS011;5822;51.000;5.874;2022-10-23T00:27:29;11.68;;;11.07;;
11531;SDS011;5822;51.000;5.874;2022-10-23T00:29:55;10.70;;;10.20;;
11531;SDS011;5822;51.000;5.874;2022-10-23T00:32:21;10.77;;;10.17;;
11531;SDS011;5822;51.000;5.874;2022-10-23T00:34:46;10.20;;;9.70;;
11531;SDS011;5822;51.000;5.874;2022-10-23T00:37:12;9.75;;;9.27;;
11531;SDS011;5822;51.000;5.874;2022-10-23T00:39:38;10.10;;;9.50;;
11531;SDS011;5822;51.000;5.874;2022-10-23T00:42:03;10.10;;;9.60;;
11531;SDS011;5822;51.000;5.874;2022-10-23T00:46:55;10.77;;;10.23;;
11531;SDS011;5822;51.000;5.874;2022-10-23T00:49:21;11.50;;;10.90;;
11531;SDS011;5822;51.000;5.874;2022-10-23T00:51:49;11.25;;;10.65;;
11531;SDS011;5822;51.000;5.874;2022-10-23T00:54:18;11.00;;;10.40;;
11531;SDS011;5822;51.000;5.874;2022-10-23T00:56:45;10.93;;;10.32;;
11531;SDS011;5822;51.000;5.874;2022-10-23T00:59:12;10.68;;;10.07;;
11531;SDS011;5822;51.000;5.874;2022-10-23T01:01:38;9.98;;;9.48;;
11531;SDS011;5822;51.000;5.874;2022-10-23T01:04:04;10.63;;;10.02;;
11531;SDS011;5822;51.000;5.874;2022-10-23T01:06:40;10.40;;;9.80;;
11531;SDS011;5822;51.000;5.874;2022-10-23T01:09:30;11.10;;;10.40;;
11531;SDS011;5822;51.000;5.874;2022-10-23T01:12:28;11.73;;;11.02;;
11531;SDS011;5822;51.000;5.874;2022-10-23T01:17:47;9.97;;;9.37;;
11531;SDS011;5822;51.000;5.874;2022-10-23T01:20:29;10.10;;;9.52;;
11531;SDS011;5822;51.000;5.874;2022-10-23T01:28:49;10.20;;;9.70;;
11531;SDS011;5822;51.000;5.874;2022-10-23T01:31:31;10.27;;;9.75;;
11531;SDS011;5822;51.000;5.874;2022-10-23T01:34:06;10.45;;;9.85;;
11531;SDS011;5822;51.000;5.874;2022-10-23T01:36:40;10.30;;;9.70;;
11531;SDS011;5822;51.000;5.874;2022-10-23T01:39:11;9.63;;;9.13;;
11531;SDS011;5822;51.000;5.874;2022-10-23T01:41:49;9.77;;;9.27;;
11531;SDS011;5822;51.000;5.874;2022-10-23T01:44:35;9.55;;;9.10;;
11531;SDS011;5822;51.000;5.874;2022-10-23T01:47:08;10.00;;;9.50;;
11531;SDS011;5822;51.000;5.874;2022-10-23T01:49:35;10.60;;;10.10;;
11531;SDS011;5822;51.000;5.874;2022-10-23T01:52:06;10.33;;;9.73;;
11531;SDS011;5822;51.000;5.874;2022-10-23T01:54:34;9.57;;;9.07;;
11531;SDS011;5822;51.000;5.874;2022-10-23T01:57:03;9.30;;;8.82;;
11531;SDS011;5822;51.000;5.874;2022-10-23T01:59:33;9.50;;;9.00;;
11531;SDS011;5822;51.000;5.874;2022-10-23T02:02:05;9.00;;;8.60;;
11531;SDS011;5822;51.000;5.874;2022-10-23T02:04:34;9.43;;;9.00;;
11531;SDS011;5822;51.000;5.874;2022-10-23T02:07:04;10.35;;;9.85;;
11531;SDS011;5822;51.000;5.874;2022-10-23T02:09:30;9.98;;;9.48;;
11531;SDS011;5822;51.000;5.874;2022-10-23T02:11:58;9.82;;;9.32;;
11531;SDS011;5822;51.000;5.874;2022-10-23T02:14:50;9.87;;;9.37;;
11531;SDS011;5822;51.000;5.874;2022-10-23T02:21:04;8.70;;;8.30;;
11531;SDS011;5822;51.000;5.874;2022-10-23T02:23:37;9.10;;;8.70;;
11531;SDS011;5822;51.000;5.874;2022-10-23T02:26:15;9.85;;;9.27;;
11531;SDS011;5822;51.000;5.874;2022-10-23T02:28:47;9.55;;;9.05;;
11531;SDS011;5822;51.000;5.874;2022-10-23T02:31:17;9.07;;;8.68;;
11531;SDS011;5822;51.000;5.874;2022-10-23T02:33:46;8.80;;;8.40;;
11531;SDS011;5822;51.000;5.874;2022-10-23T02:36:13;8.77;;;8.27;;
11531;SDS011;5822;51.000;5.874;2022-10-23T02:38:40;8.70;;;8.23;;
11531;SDS011;5822;51.000;5.874;2022-10-23T02:55:09;8.40;;;8.00;;
11531;SDS011;5822;51.000;5.874;2022-10-23T02:58:05;7.95;;;7.55;;
11531;SDS011;5822;51.000;5.874;2022-10-23T03:00:34;7.90;;;7.50;;
11531;SDS011;5822;51.000;5.874;2022-10-23T03:03:13;8.30;;;7.90;;
11531;SDS011;5822;51.000;5.874;2022-10-23T03:05:51;8.20;;;7.90;;
11531;SDS011;5822;51.000;5.874;2022-10-23T03:08:17;8.20;;;7.80;;
11531;SDS011;5822;51.000;5.874;2022-10-23T03:10:43;8.40;;;8.00;;
11531;SDS011;5822;51.000;5.874;2022-10-23T03:13:09;8.40;;;8.00;;
11531;SDS011;5822;51.000;5.874;2022-10-23T03:15:35;8.10;;;7.70;;
11531;SDS011;5822;51.000;5.874;2022-10-23T03:18:00;8.20;;;7.80;;
11531;SDS011;5822;51.000;5.874;2022-10-23T03:20:26;8.50;;;8.10;;
11531;SDS011;5822;51.000;5.874;2022-10-23T03:22:51;8.10;;;7.77;;
11531;SDS011;5822;51.000;5.874;2022-10-23T03:25:17;8.43;;;8.02;;
11531;SDS011;5822;51.000;5.874;2022-10-23T03:27:43;8.65;;;8.25;;
11531;SDS011;5822;51.000;5.874;2022-10-23T03:30:08;8.10;;;7.80;;
11531;SDS011;5822;51.000;5.874;2022-10-23T03:32:34;8.57;;;8.17;;
11531;SDS011;5822;51.000;5.874;2022-10-23T03:35:00;8.90;;;8.50;;
11531;SDS011;5822;51.000;5.874;2022-10-23T03:37:25;8.00;;;7.60;;
11531;SDS011;5822;51.000;5.874;2022-10-23T03:39:51;8.20;;;7.80;;
11531;SDS011;5822;51.000;5.874;2022-10-23T03:42:17;8.30;;;7.90;;
11531;SDS011;5822;51.000;5.874;2022-10-23T03:44:42;8.40;;;8.00;;
11531;SDS011;5822;51.000;5.874;2022-10-23T03:47:08;8.70;;;8.30;;
11531;SDS011;5822;51.000;5.874;2022-10-23T03:49:35;9.15;;;8.70;;
11531;SDS011;5822;51.000;5.874;2022-10-23T03:52:02;9.20;;;8.80;;
11531;SDS011;5822;51.000;5.874;2022-10-23T03:54:28;9.27;;;8.77;;
11531;SDS011;5822;51.000;5.874;2022-10-23T03:56:54;8.13;;;7.73;;
11531;SDS011;5822;51.000;5.874;2022-10-23T03:59:20;8.27;;;7.88;;
11531;SDS011;5822;51.000;5.874;2022-10-23T04:01:46;8.55;;;8.15;;
11531;SDS011;5822;51.000;5.874;2022-10-23T04:04:12;8.38;;;7.97;;
11531;SDS011;5822;51.000;5.874;2022-10-23T04:06:38;8.57;;;8.18;;
11531;SDS011;5822;51.000;5.874;2022-10-23T04:09:04;8.75;;;8.35;;
11531;SDS011;5822;51.000;5.874;2022-10-23T04:11:30;9.10;;;8.60;;
11531;SDS011;5822;51.000;5.874;2022-10-23T04:13:56;8.70;;;8.30;;
11531;SDS011;5822;51.000;5.874;2022-10-23T04:16:22;8.67;;;8.27;;
11531;SDS011;5822;51.000;5.874;2022-10-23T04:18:48;8.50;;;8.10;;
11531;SDS011;5822;51.000;5.874;2022-10-23T04:21:14;8.50;;;8.10;;
11531;SDS011;5822;51.000;5.874;2022-10-23T04:23:40;8.43;;;8.02;;
11531;SDS011;5822;51.000;5.874;2022-10-23T04:26:05;8.80;;;8.40;;
11531;SDS011;5822;51.000;5.874;2022-10-23T04:28:31;8.60;;;8.20;;
11531;SDS011;5822;51.000;5.874;2022-10-23T04:30:57;9.00;;;8.60;;
11531;SDS011;5822;51.000;5.874;2022-10-23T04:33:23;8.90;;;8.50;;
11531;SDS011;5822;51.000;5.874;2022-10-23T04:35:48;8.75;;;8.35;;
11531;SDS011;5822;51.000;5.874;2022-10-23T04:38:14;8.40;;;8.00;;
11531;SDS011;5822;51.000;5.874;2022-10-23T04:40:40;8.40;;;8.00;;
11531;SDS011;5822;51.000;5.874;2022-10-23T04:43:05;8.43;;;8.03;;
11531;SDS011;5822;51.000;5.874;2022-10-23T04:45:31;8.30;;;7.90;;
11531;SDS011;5822;51.000;5.874;2022-10-23T04:47:56;8.25;;;7.95;;
11531;SDS011;5822;51.000;5.874;2022-10-23T04:50:22;8.50;;;8.10;;
11531;SDS011;5822;51.000;5.874;2022-10-23T04:52:52;8.50;;;8.10;;
11531;SDS011;5822;51.000;5.874;2022-10-23T04:55:18;8.63;;;8.23;;
11531;SDS011;5822;51.000;5.874;2022-10-23T04:57:44;7.90;;;7.60;;
11531;SDS011;5822;51.000;5.874;2022-10-23T05:00:11;8.10;;;7.70;;
11531;SDS011;5822;51.000;5.874;2022-10-23T05:02:38;8.27;;;7.88;;
11531;SDS011;5822;51.000;5.874;2022-10-23T05:05:04;8.32;;;7.93;;
11531;SDS011;5822;51.000;5.874;2022-10-23T05:07:31;8.60;;;8.20;;
11531;SDS011;5822;51.000;5.874;2022-10-23T05:09:57;9.10;;;8.70;;
11531;SDS011;5822;51.000;5.874;2022-10-23T05:12:23;9.23;;;8.73;;
11531;SDS011;5822;51.000;5.874;2022-10-23T05:14:50;9.13;;;8.63;;
11531;SDS011;5822;51.000;5.874;2022-10-23T05:17:17;9.17;;;8.67;;
11531;SDS011;5822;51.000;5.874;2022-10-23T05:19:56;8.83;;;8.43;;
11531;SDS011;5822;51.000;5.874;2022-10-23T05:22:27;9.10;;;8.70;;
11531;SDS011;5822;51.000;5.874;2022-10-23T05:24:56;9.02;;;8.63;;
11531;SDS011;5822;51.000;5.874;2022-10-23T05:27:22;9.18;;;8.77;;
11531;SDS011;5822;51.000;5.874;2022-10-23T05:29:48;8.98;;;8.57;;
11531;SDS011;5822;51.000;5.874;2022-10-23T05:32:14;9.00;;;8.60;;
11531;SDS011;5822;51.000;5.874;2022-10-23T05:34:40;8.80;;;8.40;;
11531;SDS011;5822;51.000;5.874;2022-10-23T05:37:08;9.02;;;8.63;;
11531;SDS011;5822;51.000;5.874;2022-10-23T05:39:36;9.00;;;8.60;;
11531;SDS011;5822;51.000;5.874;2022-10-23T05:42:01;8.90;;;8.50;;
11531;SDS011;5822;51.000;5.874;2022-10-23T05:44:27;9.32;;;8.82;;
11531;SDS011;5822;51.000;5.874;2022-10-23T05:46:53;8.90;;;8.40;;
11531;SDS011;5822;51.000;5.874;2022-10-23T05:49:18;9.20;;;8.80;;
11531;SDS011;5822;51.000;5.874;2022-10-23T05:51:44;9.20;;;8.80;;
11531;SDS011;5822;51.000;5.874;2022-10-23T05:54:10;9.20;;;8.70;;
11531;SDS011;5822;51.000;5.874;2022-10-23T05:56:36;9.38;;;8.98;;
11531;SDS011;5822;51.000;5.874;2022-10-23T05:59:05;9.20;;;8.80;;
11531;SDS011;5822;51.000;5.874;2022-10-23T06:01:31;8.52;;;8.13;;
11531;SDS011;5822;51.000;5.874;2022-10-23T06:03:58;8.48;;;8.07;;
11531;SDS011;5822;51.000;5.874;2022-10-23T06:06:24;8.60;;;8.20;;
11531;SDS011;5822;51.000;5.874;2022-10-23T06:08:50;9.00;;;8.60;;
11531;SDS011;5822;51.000;5.874;2022-10-23T06:11:16;8.80;;;8.40;;
11531;SDS011;5822;51.000;5.874;2022-10-23T06:13:42;8.80;;;8.40;;
11531;SDS011;5822;51.000;5.874;2022-10-23T06:16:16;8.82;;;8.43;;
11531;SDS011;5822;51.000;5.874;2022-10-23T06:18:43;8.73;;;8.32;;
11531;SDS011;5822;51.000;5.874;2022-10-23T06:21:10;8.82;;;8.43;;
11531;SDS011;5822;51.000;5.874;2022-10-23T06:23:37;8.80;;;8.40;;
11531;SDS011;5822;51.000;5.874;2022-10-23T06:26:04;9.20;;;8.80;;
11531;SDS011;5822;51.000;5.874;2022-10-23T06:28:31;9.18;;;8.77;;
11531;SDS011;5822;51.000;5.874;2022-10-23T06:30:56;9.20;;;8.80;;
11531;SDS011;5822;51.000;5.874;2022-10-23T06:33:22;9.32;;;8.82;;
11531;SDS011;5822;51.000;5.874;2022-10-23T06:35:48;9.23;;;8.82;;
11531;SDS011;5822;51.000;5.874;2022-10-23T06:38:13;9.20;;;8.70;;
11531;SDS011;5822;51.000;5.874;2022-10-23T06:40:39;9.20;;;8.80;;
11531;SDS011;5822;51.000;5.874;2022-10-23T06:43:05;9.47;;;9.00;;
11531;SDS011;5822;51.000;5.874;2022-10-23T06:45:32;9.70;;;9.30;;
11531;SDS011;5822;51.000;5.874;2022-10-23T06:47:58;10.18;;;9.68;;
11531;SDS011;5822;51.000;5.874;2022-10-23T06:50:24;10.07;;;9.57;;
11531;SDS011;5822;51.000;5.874;2022-10-23T06:52:51;10.13;;;9.63;;
11531;SDS011;5822;51.000;5.874;2022-10-23T06:55:17;9.52;;;9.13;;
11531;SDS011;5822;51.000;5.874;2022-10-23T06:57:44;9.38;;;8.98;;
11531;SDS011;5822;51.000;5.874;2022-10-23T07:00:10;9.30;;;8.90;;
11531;SDS011;5822;51.000;5.874;2022-10-23T07:02:36;9.40;;;9.00;;
11531;SDS011;5822;51.000;5.874;2022-10-23T07:05:01;10.00;;;9.50;;
11531;SDS011;5822;51.000;5.874;2022-10-23T07:07:30;10.00;;;9.60;;
11531;SDS011;5822;51.000;5.874;2022-10-23T07:09:56;10.10;;;9.60;;
11531;SDS011;5822;51.000;5.874;2022-10-23T07:12:22;10.27;;;9.77;;
11531;SDS011;5822;51.000;5.874;2022-10-23T07:14:47;9.52;;;9.13;;
11531;SDS011;5822;51.000;5.874;2022-10-23T07:17:13;9.30;;;8.90;;
11531;SDS011;5822;51.000;5.874;2022-10-23T07:19:38;9.60;;;9.10;;
11531;SDS011;5822;51.000;5.874;2022-10-23T07:22:04;9.60;;;9.20;;
11531;SDS011;5822;51.000;5.874;2022-10-23T07:24:30;9.70;;;9.30;;
11531;SDS011;5822;51.000;5.874;2022-10-23T07:27:00;9.90;;;9.50;;
11531;SDS011;5822;51.000;5.874;2022-10-23T07:29:27;10.40;;;9.90;;
11531;SDS011;5822;51.000;5.874;2022-10-23T07:31:52;10.17;;;9.67;;
11531;SDS011;5822;51.000;5.874;2022-10-23T07:34:18;9.88;;;9.40;;
11531;SDS011;5822;51.000;5.874;2022-10-23T07:36:44;9.40;;;9.00;;
11531;SDS011;5822;51.000;5.874;2022-10-23T07:39:09;9.50;;;9.10;;
11531;SDS011;5822;51.000;5.874;2022-10-23T07:41:35;10.07;;;9.57;;
11531;SDS011;5822;51.000;5.874;2022-10-23T07:44:01;9.60;;;9.20;;
11531;SDS011;5822;51.000;5.874;2022-10-23T07:46:27;10.05;;;9.55;;
11531;SDS011;5822;51.000;5.874;2022-10-23T07:48:52;10.10;;;9.60;;
11531;SDS011;5822;51.000;5.874;2022-10-23T07:51:18;9.70;;;9.30;;
11531;SDS011;5822;51.000;5.874;2022-10-23T07:53:44;10.30;;;9.80;;
11531;SDS011;5822;51.000;5.874;2022-10-23T07:58:44;9.80;;;9.30;;
11531;SDS011;5822;51.000;5.874;2022-10-23T08:01:52;9.52;;;9.13;;
11531;SDS011;5822;51.000;5.874;2022-10-23T08:04:01;9.15;;;8.75;;
11531;SDS011;5822;51.000;5.874;2022-10-23T08:06:27;9.50;;;9.10;;
11531;SDS011;5822;51.000;5.874;2022-10-23T08:08:53;9.60;;;9.10;;
11531;SDS011;5822;51.000;5.874;2022-10-23T08:11:21;9.23;;;8.83;;
11531;SDS011;5822;51.000;5.874;2022-10-23T08:13:51;9.15;;;8.75;;
11531;SDS011;5822;51.000;5.874;2022-10-23T08:16:21;8.90;;;8.50;;
11531;SDS011;5822;51.000;5.874;2022-10-23T08:18:48;8.65;;;8.25;;
11531;SDS011;5822;51.000;5.874;2022-10-23T08:21:14;8.80;;;8.40;;
11531;SDS011;5822;51.000;5.874;2022-10-23T08:23:41;8.90;;;8.50;;
11531;SDS011;5822;51.000;5.874;2022-10-23T08:26:07;9.20;;;8.80;;
11531;SDS011;5822;51.000;5.874;2022-10-23T08:28:33;9.18;;;8.77;;
11531;SDS011;5822;51.000;5.874;2022-10-23T08:31:04;8.98;;;8.57;;
11531;SDS011;5822;51.000;5.874;2022-10-23T08:33:35;9.25;;;8.85;;
11531;SDS011;5822;51.000;5.874;2022-10-23T08:36:05;9.50;;;9.10;;
11531;SDS011;5822;51.000;5.874;2022-10-23T08:38:40;8.82;;;8.43;;
11531;SDS011;5822;51.000;5.874;2022-10-23T08:41:05;8.80;;;8.40;;
11531;SDS011;5822;51.000;5.874;2022-10-23T08:43:53;9.00;;;8.60;;
11531;SDS011;5822;51.000;5.874;2022-10-23T08:46:25;9.10;;;8.70;;
11531;SDS011;5822;51.000;5.874;2022-10-23T08:48:57;9.40;;;9.00;;
11531;SDS011;5822;51.000;5.874;2022-10-23T08:51:41;9.00;;;8.60;;
11531;SDS011;5822;51.000;5.874;2022-10-23T08:56:40;8.90;;;8.50;;
11531;SDS011;5822;51.000;5.874;2022-10-23T09:04:45;8.80;;;8.40;;
11531;SDS011;5822;51.000;5.874;2022-10-23T09:12:31;8.90;;;8.50;;
11531;SDS011;5822;51.000;5.874;2022-10-23T09:15:06;8.90;;;8.50;;
11531;SDS011;5822;51.000;5.874;2022-10-23T09:17:39;9.20;;;8.80;;
11531;SDS011;5822;51.000;5.874;2022-10-23T09:20:20;8.80;;;8.40;;
11531;SDS011;5822;51.000;5.874;2022-10-23T09:22:48;9.10;;;8.70;;
11531;SDS011;5822;51.000;5.874;2022-10-23T09:25:19;8.95;;;8.55;;
11531;SDS011;5822;51.000;5.874;2022-10-23T09:27:55;8.40;;;8.10;;
11531;SDS011;5822;51.000;5.874;2022-10-23T09:33:11;7.80;;;7.50;;
11531;SDS011;5822;51.000;5.874;2022-10-23T09:35:38;7.87;;;7.57;;
11531;SDS011;5822;51.000;5.874;2022-10-23T09:38:24;8.00;;;7.70;;
11531;SDS011;5822;51.000;5.874;2022-10-23T09:40:52;8.25;;;7.88;;
11531;SDS011;5822;51.000;5.874;2022-10-23T09:43:18;8.13;;;7.73;;
11531;SDS011;5822;51.000;5.874;2022-10-23T09:45:55;8.20;;;7.80;;
11531;SDS011;5822;51.000;5.874;2022-10-23T09:48:25;7.78;;;7.47;;
11531;SDS011;5822;51.000;5.874;2022-10-23T09:50:52;8.00;;;7.70;;
11531;SDS011;5822;51.000;5.874;2022-10-23T09:54:10;8.00;;;7.70;;
11531;SDS011;5822;51.000;5.874;2022-10-23T09:56:25;8.00;;;7.70;;
11531;SDS011;5822;51.000;5.874;2022-10-23T09:58:56;8.13;;;7.78;;
11531;SDS011;5822;51.000;5.874;2022-10-23T10:01:47;7.80;;;7.50;;
11531;SDS011;5822;51.000;5.874;2022-10-23T10:04:39;7.63;;;7.32;;
11531;SDS011;5822;51.000;5.874;2022-10-23T10:07:14;8.10;;;7.70;;
11531;SDS011;5822;51.000;5.874;2022-10-23T10:09:47;8.00;;;7.70;;
11531;SDS011;5822;51.000;5.874;2022-10-23T10:17:50;8.20;;;7.80;;
11531;SDS011;5822;51.000;5.874;2022-10-23T10:29:36;7.90;;;7.60;;
11531;SDS011;5822;51.000;5.874;2022-10-23T10:32:39;8.60;;;8.20;;
11531;SDS011;5822;51.000;5.874;2022-10-23T10:41:08;8.05;;;7.75;;
11531;SDS011;5822;51.000;5.874;2022-10-23T10:55:25;8.00;;;7.70;;
11531;SDS011;5822;51.000;5.874;2022-10-23T10:58:26;8.25;;;7.90;;
11531;SDS011;5822;51.000;5.874;2022-10-23T11:01:00;7.80;;;7.50;;
11531;SDS011;5822;51.000;5.874;2022-10-23T11:03:33;7.90;;;7.60;;
11531;SDS011;5822;51.000;5.874;2022-10-23T11:06:03;7.75;;;7.45;;
11531;SDS011;5822;51.000;5.874;2022-10-23T11:11:05;7.60;;;7.30;;
11531;SDS011;5822;51.000;5.874;2022-10-23T11:13:39;7.90;;;7.60;;
11531;SDS011;5822;51.000;5.874;2022-10-23T11:16:14;8.00;;;7.70;;
11531;SDS011;5822;51.000;5.874;2022-10-23T11:18:47;7.80;;;7.50;;
11531;SDS011;5822;51.000;5.874;2022-10-23T11:21:51;7.95;;;7.65;;
11531;SDS011;5822;51.000;5.874;2022-10-23T11:36:15;7.95;;;7.65;;
11531;SDS011;5822;51.000;5.874;2022-10-23T11:38:49;8.20;;;7.90;;
11531;SDS011;5822;51.000;5.874;2022-10-23T11:41:20;7.95;;;7.65;;
11531;SDS011;5822;51.000;5.874;2022-10-23T11:43:56;8.10;;;7.80;;
11531;SDS011;5822;51.000;5.874;2022-10-23T11:46:36;8.10;;;7.80;;
11531;SDS011;5822;51.000;5.874;2022-10-23T11:49:03;8.00;;;7.70;;
11531;SDS011;5822;51.000;5.874;2022-10-23T11:51:43;7.80;;;7.50;;
11531;SDS011;5822;51.000;5.874;2022-10-23T11:56:34;8.00;;;7.70;;
11531;SDS011;5822;51.000;5.874;2022-10-23T11:59:23;7.90;;;7.60;;
11531;SDS011;5822;51.000;5.874;2022-10-23T12:02:01;7.85;;;7.55;;
11531;SDS011;5822;51.000;5.874;2022-10-23T12:04:46;7.80;;;7.50;;
11531;SDS011;5822;51.000;5.874;2022-10-23T12:07:24;8.00;;;7.70;;
11531;SDS011;5822;51.000;5.874;2022-10-23T12:09:57;7.80;;;7.50;;
11531;SDS011;5822;51.000;5.874;2022-10-23T12:12:29;7.82;;;7.53;;
11531;SDS011;5822;51.000;5.874;2022-10-23T12:17:54;8.00;;;7.70;;
11531;SDS011;5822;51.000;5.874;2022-10-23T12:23:59;7.72;;;7.43;;
11531;SDS011;5822;51.000;5.874;2022-10-23T12:34:27;7.60;;;7.30;;
11531;SDS011;5822;51.000;5.874;2022-10-23T12:39:34;7.70;;;7.40;;
11531;SDS011;5822;51.000;5.874;2022-10-23T12:42:03;7.60;;;7.30;;
11531;SDS011;5822;51.000;5.874;2022-10-23T12:44:30;7.45;;;7.15;;
11531;SDS011;5822;51.000;5.874;2022-10-23T12:46:57;7.60;;;7.30;;
11531;SDS011;5822;51.000;5.874;2022-10-23T12:49:25;7.70;;;7.40;;
11531;SDS011;5822;51.000;5.874;2022-10-23T12:54:22;7.80;;;7.50;;
11531;SDS011;5822;51.000;5.874;2022-10-23T12:56:48;7.60;;;7.30;;
11531;SDS011;5822;51.000;5.874;2022-10-23T12:59:18;7.70;;;7.40;;
11531;SDS011;5822;51.000;5.874;2022-10-23T13:01:48;8.20;;;7.90;;
11531;SDS011;5822;51.000;5.874;2022-10-23T13:04:27;7.60;;;7.30;;
11531;SDS011;5822;51.000;5.874;2022-10-23T13:06:55;8.00;;;7.70;;
11531;SDS011;5822;51.000;5.874;2022-10-23T13:11:51;7.87;;;7.57;;
11531;SDS011;5822;51.000;5.874;2022-10-23T13:17:05;7.80;;;7.50;;
11531;SDS011;5822;51.000;5.874;2022-10-23T13:19:33;7.70;;;7.40;;
11531;SDS011;5822;51.000;5.874;2022-10-23T13:21:59;7.60;;;7.30;;
11531;SDS011;5822;51.000;5.874;2022-10-23T13:24:27;7.80;;;7.50;;
11531;SDS011;5822;51.000;5.874;2022-10-23T13:26:54;7.90;;;7.60;;
11531;SDS011;5822;51.000;5.874;2022-10-23T13:32:08;8.02;;;7.72;;
11531;SDS011;5822;51.000;5.874;2022-10-23T13:34:35;7.80;;;7.50;;
11531;SDS011;5822;51.000;5.874;2022-10-23T13:39:45;7.90;;;7.60;;
11531;SDS011;5822;51.000;5.874;2022-10-23T13:42:13;7.70;;;7.40;;
11531;SDS011;5822;51.000;5.874;2022-10-23T13:44:39;7.85;;;7.55;;
11531;SDS011;5822;51.000;5.874;2022-10-23T13:47:09;7.90;;;7.60;;
11531;SDS011;5822;51.000;5.874;2022-10-23T13:49:36;8.00;;;7.70;;
11531;SDS011;5822;51.000;5.874;2022-10-23T13:52:02;7.95;;;7.65;;
11531;SDS011;5822;51.000;5.874;2022-10-23T13:54:28;7.90;;;7.60;;
11531;SDS011;5822;51.000;5.874;2022-10-23T13:56:54;7.87;;;7.57;;
11531;SDS011;5822;51.000;5.874;2022-10-23T13:59:21;7.70;;;7.40;;
11531;SDS011;5822;51.000;5.874;2022-10-23T14:01:47;7.70;;;7.40;;
11531;SDS011;5822;51.000;5.874;2022-10-23T14:04:14;7.65;;;7.35;;
11531;SDS011;5822;51.000;5.874;2022-10-23T14:06:41;7.60;;;7.30;;
11531;SDS011;5822;51.000;5.874;2022-10-23T14:09:14;7.80;;;7.50;;
11531;SDS011;5822;51.000;5.874;2022-10-23T14:11:42;7.80;;;7.50;;
11531;SDS011;5822;51.000;5.874;2022-10-23T14:14:08;7.90;;;7.60;;
11531;SDS011;5822;51.000;5.874;2022-10-23T14:16:36;7.90;;;7.60;;
11531;SDS011;5822;51.000;5.874;2022-10-23T14:19:02;7.70;;;7.40;;
11531;SDS011;5822;51.000;5.874;2022-10-23T14:21:28;7.80;;;7.50;;
11531;SDS011;5822;51.000;5.874;2022-10-23T14:23:53;7.70;;;7.40;;
11531;SDS011;5822;51.000;5.874;2022-10-23T14:26:20;7.90;;;7.60;;
11531;SDS011;5822;51.000;5.874;2022-10-23T14:28:50;7.70;;;7.40;;
11531;SDS011;5822;51.000;5.874;2022-10-23T14:31:16;8.30;;;8.00;;
11531;SDS011;5822;51.000;5.874;2022-10-23T14:33:43;8.00;;;7.70;;
11531;SDS011;5822;51.000;5.874;2022-10-23T14:36:10;8.20;;;7.90;;
11531;SDS011;5822;51.000;5.874;2022-10-23T14:38:35;8.43;;;8.10;;
11531;SDS011;5822;51.000;5.874;2022-10-23T14:41:01;7.90;;;7.60;;
11531;SDS011;5822;51.000;5.874;2022-10-23T14:43:27;7.90;;;7.60;;
11531;SDS011;5822;51.000;5.874;2022-10-23T14:45:53;7.95;;;7.65;;
11531;SDS011;5822;51.000;5.874;2022-10-23T14:48:18;8.20;;;7.90;;
11531;SDS011;5822;51.000;5.874;2022-10-23T14:50:45;8.23;;;7.93;;
11531;SDS011;5822;51.000;5.874;2022-10-23T14:53:12;8.38;;;8.07;;
11531;SDS011;5822;51.000;5.874;2022-10-23T14:55:38;8.90;;;8.50;;
11531;SDS011;5822;51.000;5.874;2022-10-23T14:58:04;8.80;;;8.40;;
11531;SDS011;5822;51.000;5.874;2022-10-23T15:00:30;9.23;;;8.77;;
11531;SDS011;5822;51.000;5.874;2022-10-23T15:02:56;8.90;;;8.50;;
11531;SDS011;5822;51.000;5.874;2022-10-23T15:05:22;8.95;;;8.55;;
11531;SDS011;5822;51.000;5.874;2022-10-23T15:07:47;8.73;;;8.33;;
11531;SDS011;5822;51.000;5.874;2022-10-23T15:10:13;8.80;;;8.40;;
11531;SDS011;5822;51.000;5.874;2022-10-23T15:12:39;8.80;;;8.40;;
11531;SDS011;5822;51.000;5.874;2022-10-23T15:15:05;8.98;;;8.57;;
11531;SDS011;5822;51.000;5.874;2022-10-23T15:17:31;8.80;;;8.40;;
11531;SDS011;5822;51.000;5.874;2022-10-23T15:19:58;8.90;;;8.50;;
11531;SDS011;5822;51.000;5.874;2022-10-23T15:22:24;9.30;;;8.80;;
11531;SDS011;5822;51.000;5.874;2022-10-23T15:24:50;9.10;;;8.70;;
11531;SDS011;5822;51.000;5.874;2022-10-23T15:27:16;9.20;;;8.80;;
11531;SDS011;5822;51.000;5.874;2022-10-23T15:29:42;9.37;;;8.83;;
11531;SDS011;5822;51.000;5.874;2022-10-23T15:32:08;9.10;;;8.70;;
11531;SDS011;5822;51.000;5.874;2022-10-23T15:34:34;9.23;;;8.82;;
11531;SDS011;5822;51.000;5.874;2022-10-23T15:37:01;9.13;;;8.68;;
11531;SDS011;5822;51.000;5.874;2022-10-23T15:39:31;9.60;;;9.10;;
11531;SDS011;5822;51.000;5.874;2022-10-23T15:41:58;9.30;;;8.80;;
11531;SDS011;5822;51.000;5.874;2022-10-23T15:44:25;9.20;;;8.80;;
11531;SDS011;5822;51.000;5.874;2022-10-23T15:46:52;8.70;;;8.30;;
11531;SDS011;5822;51.000;5.874;2022-10-23T15:49:18;9.18;;;8.68;;
11531;SDS011;5822;51.000;5.874;2022-10-23T15:51:44;9.60;;;9.10;;
11531;SDS011;5822;51.000;5.874;2022-10-23T15:54:11;10.00;;;9.40;;
11531;SDS011;5822;51.000;5.874;2022-10-23T15:56:40;9.55;;;9.15;;
11531;SDS011;5822;51.000;5.874;2022-10-23T15:59:07;9.88;;;9.30;;
11531;SDS011;5822;51.000;5.874;2022-10-23T16:01:32;9.90;;;9.40;;
11531;SDS011;5822;51.000;5.874;2022-10-23T16:03:58;9.68;;;9.27;;
11531;SDS011;5822;51.000;5.874;2022-10-23T16:06:23;9.90;;;9.30;;
11531;SDS011;5822;51.000;5.874;2022-10-23T16:08:49;9.80;;;9.23;;
11531;SDS011;5822;51.000;5.874;2022-10-23T16:11:16;10.00;;;9.40;;
11531;SDS011;5822;51.000;5.874;2022-10-23T16:13:44;9.90;;;9.40;;
11531;SDS011;5822;51.000;5.874;2022-10-23T16:16:10;9.50;;;9.00;;
11531;SDS011;5822;51.000;5.874;2022-10-23T16:18:37;9.05;;;8.65;;
11531;SDS011;5822;51.000;5.874;2022-10-23T16:21:04;9.70;;;9.20;;
11531;SDS011;5822;51.000;5.874;2022-10-23T16:23:30;9.13;;;8.63;;
11531;SDS011;5822;51.000;5.874;2022-10-23T16:26:00;9.35;;;8.85;;
11531;SDS011;5822;51.000;5.874;2022-10-23T16:28:27;9.45;;;8.95;;
11531;SDS011;5822;51.000;5.874;2022-10-23T16:30:53;9.98;;;9.38;;
11531;SDS011;5822;51.000;5.874;2022-10-23T16:33:19;10.13;;;9.52;;
11531;SDS011;5822;51.000;5.874;2022-10-23T16:35:44;9.83;;;9.33;;
11531;SDS011;5822;51.000;5.874;2022-10-23T16:38:10;10.00;;;9.40;;
11531;SDS011;5822;51.000;5.874;2022-10-23T16:40:35;10.47;;;9.80;;
11531;SDS011;5822;51.000;5.874;2022-10-23T16:43:01;9.97;;;9.47;;
11531;SDS011;5822;51.000;5.874;2022-10-23T16:45:26;10.10;;;9.50;;
11531;SDS011;5822;51.000;5.874;2022-10-23T16:47:52;9.70;;;9.20;;
11531;SDS011;5822;51.000;5.874;2022-10-23T16:50:18;9.77;;;9.18;;
11531;SDS011;5822;51.000;5.874;2022-10-23T16:52:43;10.23;;;9.53;;
11531;SDS011;5822;51.000;5.874;2022-10-23T16:55:09;10.27;;;9.70;;
11531;SDS011;5822;51.000;5.874;2022-10-23T16:57:35;10.00;;;9.50;;
11531;SDS011;5822;51.000;5.874;2022-10-23T17:00:01;9.80;;;9.30;;
11531;SDS011;5822;51.000;5.874;2022-10-23T17:02:28;9.85;;;9.35;;
11531;SDS011;5822;51.000;5.874;2022-10-23T17:04:53;9.40;;;8.90;;
11531;SDS011;5822;51.000;5.874;2022-10-23T17:07:19;10.10;;;9.60;;
11531;SDS011;5822;51.000;5.874;2022-10-23T17:09:45;10.18;;;9.63;;
11531;SDS011;5822;51.000;5.874;2022-10-23T17:12:11;9.80;;;9.30;;
11531;SDS011;5822;51.000;5.874;2022-10-23T17:14:38;10.00;;;9.50;;